Terminal Aerodrome Forecast
Issued by NWS Knoxville/Tri Cities, TN

Home | Current Version | Previous Version | Text Only | Print | Product List | Glossary On
Versions: 1 2 3 4 5 6 7 8 9 10 11 12 13 14 15
000
FTUS44 KMRX 212136 AAA
TAFCHA
TAF AMD
KCHA 212136Z 2122/2218 18005KT P6SM BKN035
     FM220100 VRB03KT P6SM BKN030
     FM220400 34003KT P6SM SCT025 BKN250
     FM221200 01010KT P6SM BKN250=

USA.gov is the U.S. government's official web portal to all federal, state and local government web resources and services.